Time;durP1;ratioP1;P1;durP2;ratioP2;P2;SDS_P1;SDS_P2;PMS_P1;PMS_P2;Temp;Humidity;BMP_temperature;BMP_pressure;BME280_temperature;BME280_humidity;BME280_pressure;Samples;Min_cycle;Max_cycle;Signal;HPM_P1;HPM_P2
2023/06/10 00:00:06;;;;;;;4.70;4.30;;;16.20;99.90;;;;;;5032474;28;20471;-69
2023/06/10 00:02:33;;;;;;;5.17;4.77;;;16.20;99.90;;;;;;5032623;28;20468;-70
2023/06/10 00:05:00;;;;;;;5.17;4.63;;;16.20;99.90;;;;;;5033692;28;20468;-69
2023/06/10 00:07:27;;;;;;;5.50;5.00;;;16.10;99.90;;;;;;5052359;28;20490;-70
2023/06/10 00:09:55;;;;;;;5.00;4.50;;;16.10;99.90;;;;;;5052172;28;20513;-70
2023/06/10 00:12:23;;;;;;;5.50;4.93;;;16.10;99.90;;;;;;5050764;28;20905;-70
2023/06/10 00:14:51;;;;;;;4.73;4.27;;;16.00;99.90;;;;;;5036511;28;20880;-69
2023/06/10 00:17:18;;;;;;;4.90;4.47;;;16.00;99.90;;;;;;5044279;28;20455;-70
2023/06/10 00:19:46;;;;;;;5.00;4.50;;;16.00;99.90;;;;;;5036803;28;21006;-69
2023/06/10 00:22:14;;;;;;;5.03;4.63;;;16.00;99.90;;;;;;5031862;28;20472;-70
2023/06/10 00:24:41;;;;;;;5.17;4.67;;;15.90;99.90;;;;;;5032432;28;20471;-69
2023/06/10 00:27:08;;;;;;;4.90;4.50;;;15.90;99.90;;;;;;5032093;28;20480;-70
2023/06/10 00:29:36;;;;;;;5.33;4.73;;;15.80;99.90;;;;;;5032311;28;20460;-70
2023/06/10 00:32:04;;;;;;;5.10;4.60;;;15.80;99.90;;;;;;5049887;28;20835;-69
2023/06/10 00:34:30;;;;;;;6.33;4.77;;;15.80;99.90;;;;;;5046965;28;20474;-69
2023/06/10 00:36:57;;;;;;;5.13;4.63;;;15.80;99.90;;;;;;5031975;28;20456;-70
2023/06/10 00:39:24;;;;;;;5.10;4.60;;;15.80;99.90;;;;;;5031766;28;20495;-70
2023/06/10 00:41:51;;;;;;;6.10;4.77;;;15.70;99.90;;;;;;5040016;28;20467;-69
2023/06/10 00:44:18;;;;;;;6.10;4.83;;;15.70;99.90;;;;;;5051564;28;20456;-69
2023/06/10 00:46:46;;;;;;;5.93;5.30;;;15.60;99.90;;;;;;5051769;28;20843;-69
2023/06/10 00:49:13;;;;;;;6.27;5.67;;;15.60;99.90;;;;;;5051480;28;20479;-69
2023/06/10 00:51:40;;;;;;;5.30;4.80;;;15.60;99.90;;;;;;5051514;28;20483;-69
2023/06/10 00:54:08;;;;;;;4.90;4.50;;;15.60;99.90;;;;;;5051564;28;20505;-69
2023/06/10 00:56:36;;;;;;;5.80;5.03;;;15.60;99.90;;;;;;5037874;28;20464;-69
2023/06/10 00:59:02;;;;;;;5.37;4.87;;;15.50;99.90;;;;;;5031635;28;20484;-69
2023/06/10 01:01:30;;;;;;;5.47;4.97;;;15.50;99.90;;;;;;5044514;28;20471;-70
2023/06/10 01:03:58;;;;;;;6.57;5.30;;;15.50;99.90;;;;;;5051509;28;20491;-70
2023/06/10 01:06:35;;;;;;;5.60;5.10;;;15.50;99.90;;;;;;5051441;28;20466;-70
2023/06/10 01:09:16;;;;;;;5.80;5.10;;;15.40;99.90;;;;;;5051746;28;20483;-70
2023/06/10 01:11:53;;;;;;;5.70;5.20;;;15.40;99.90;;;;;;5051371;28;20842;-69
2023/06/10 01:14:20;;;;;;;5.67;5.10;;;15.40;99.90;;;;;;5051227;28;20463;-70
2023/06/10 01:16:48;;;;;;;5.67;5.03;;;15.40;99.90;;;;;;5044808;28;20676;-70
2023/06/10 01:19:17;;;;;;;5.33;4.83;;;15.30;99.90;;;;;;5031113;28;20472;-70
2023/06/10 01:21:48;;;;;;;5.57;4.83;;;15.30;99.90;;;;;;5031065;28;20464;-70
2023/06/10 01:24:18;;;;;;;6.03;5.00;;;15.30;99.90;;;;;;5030893;28;20959;-69
2023/06/10 01:26:46;;;;;;;5.90;5.40;;;15.30;99.90;;;;;;5046439;28;20475;-70
2023/06/10 01:29:18;;;;;;;5.60;5.10;;;15.30;99.90;;;;;;5050809;28;20533;-69
2023/06/10 01:31:52;;;;;;;5.37;4.87;;;15.20;99.90;;;;;;5050923;28;20463;-70
2023/06/10 01:34:20;;;;;;;6.23;5.50;;;15.20;99.90;;;;;;5050788;28;20942;-70
2023/06/10 01:36:50;;;;;;;4.70;4.30;;;15.20;99.90;;;;;;5051103;28;20485;-70
2023/06/10 01:39:18;;;;;;;6.30;5.10;;;15.20;99.90;;;;;;5039391;28;20486;-70
2023/06/10 01:41:45;;;;;;;6.80;5.30;;;15.10;99.90;;;;;;5030735;28;20487;-70
2023/06/10 01:44:11;;;;;;;8.00;5.27;;;15.10;99.90;;;;;;5040956;28;20466;-69
2023/06/10 01:46:38;;;;;;;4.80;4.40;;;15.10;99.90;;;;;;5036864;28;20468;-69
2023/06/10 01:49:05;;;;;;;5.17;4.77;;;15.10;99.90;;;;;;5040117;28;20834;-70
2023/06/10 01:51:32;;;;;;;5.27;4.80;;;15.10;99.90;;;;;;5050179;28;20463;-69
2023/06/10 01:54:00;;;;;;;5.47;5.00;;;15.10;99.90;;;;;;5034030;28;20991;-70
2023/06/10 01:56:26;;;;;;;6.90;5.13;;;15.00;99.90;;;;;;5034669;28;20463;-69
2023/06/10 01:58:55;;;;;;;5.73;5.17;;;15.00;99.90;;;;;;5050615;28;20525;-70
2023/06/10 02:01:22;;;;;;;5.53;5.10;;;15.00;99.90;;;;;;5049619;28;20466;-70
2023/06/10 02:03:48;;;;;;;6.77;5.10;;;15.00;99.90;;;;;;5043723;28;20467;-69
2023/06/10 02:06:15;;;;;;;5.27;4.73;;;15.00;99.90;;;;;;5030334;28;20518;-70
2023/06/10 02:08:42;;;;;;;5.97;5.33;;;15.00;99.90;;;;;;5030392;28;20511;-69
2023/06/10 02:11:10;;;;;;;5.90;5.30;;;14.90;99.90;;;;;;5031269;28;20460;-70
2023/06/10 02:13:36;;;;;;;6.10;5.50;;;14.90;99.90;;;;;;5050467;28;20455;-70
2023/06/10 02:16:03;;;;;;;5.20;4.80;;;14.90;99.90;;;;;;5050057;28;20459;-69
2023/06/10 02:18:30;;;;;;;4.80;4.40;;;14.80;99.90;;;;;;5045862;28;20503;-70
2023/06/10 02:20:57;;;;;;;6.27;5.67;;;14.80;99.90;;;;;;5030000;28;20464;-70
2023/06/10 02:23:23;;;;;;;5.93;5.40;;;14.80;99.90;;;;;;5033407;28;20459;-70
2023/06/10 02:25:50;;;;;;;5.17;4.77;;;14.80;99.90;;;;;;5050333;28;20455;-70
2023/06/10 02:28:18;;;;;;;5.70;5.00;;;14.70;99.90;;;;;;5049712;28;20496;-70
2023/06/10 02:30:46;;;;;;;6.07;5.47;;;14.70;99.90;;;;;;5050023;28;20459;-70
2023/06/10 02:33:14;;;;;;;6.10;5.50;;;14.70;99.90;;;;;;5050012;28;20902;-70
2023/06/10 02:35:40;;;;;;;5.27;4.83;;;14.70;99.90;;;;;;5049265;28;20459;-70
2023/06/10 02:38:07;;;;;;;6.40;5.80;;;14.70;99.90;;;;;;5041005;28;20476;-69
2023/06/10 02:40:34;;;;;;;5.53;5.00;;;14.60;99.90;;;;;;5034577;28;20455;-70
2023/06/10 02:43:00;;;;;;;5.40;4.90;;;14.50;99.90;;;;;;5049762;28;20463;-70
2023/06/10 02:45:28;;;;;;;10.20;6.07;;;14.50;99.90;;;;;;5046103;28;20815;-70
2023/06/10 02:47:55;;;;;;;6.30;5.63;;;14.50;99.90;;;;;;5045639;28;20484;-70
2023/06/10 02:50:22;;;;;;;6.03;5.43;;;14.50;99.90;;;;;;5049344;28;20466;-70
2023/06/10 02:52:49;;;;;;;5.43;4.93;;;14.50;99.90;;;;;;5049973;28;20455;-70
2023/06/10 02:55:16;;;;;;;6.77;5.80;;;14.50;99.90;;;;;;5049699;28;20509;-69
2023/06/10 02:57:43;;;;;;;6.67;6.03;;;14.50;99.90;;;;;;5049930;28;20478;-70
2023/06/10 03:00:11;;;;;;;6.30;5.70;;;14.50;99.90;;;;;;5041277;28;20463;-70
2023/06/10 03:02:39;;;;;;;5.13;4.73;;;14.50;99.90;;;;;;5049674;28;20824;-70
2023/06/10 03:05:09;;;;;;;5.93;5.33;;;14.40;99.90;;;;;;5049636;28;20574;-70
2023/06/10 03:07:36;;;;;;;5.80;5.30;;;14.40;99.90;;;;;;5049544;28;20537;-70
2023/06/10 03:10:04;;;;;;;5.67;5.10;;;14.40;99.90;;;;;;5041494;28;20466;-70
2023/06/10 03:12:31;;;;;;;5.17;4.73;;;14.40;99.90;;;;;;5049398;28;20538;-70
2023/06/10 03:14:57;;;;;;;5.00;4.60;;;14.30;99.90;;;;;;5042204;28;20452;-68
2023/06/10 03:17:25;;;;;;;6.03;5.53;;;14.40;99.90;;;;;;5032605;28;20454;-70
2023/06/10 03:19:53;;;;;;;6.90;5.57;;;14.30;99.90;;;;;;5049867;28;20460;-68
2023/06/10 03:22:20;;;;;;;7.10;5.57;;;14.30;99.90;;;;;;5049087;28;20876;-68
2023/06/10 03:24:50;;;;;;;5.10;4.70;;;14.30;99.90;;;;;;5049777;28;20463;-70
2023/06/10 03:27:17;;;;;;;5.40;4.90;;;14.30;99.90;;;;;;5049352;28;20466;-70
2023/06/10 03:29:44;;;;;;;5.67;5.10;;;14.30;99.90;;;;;;5049165;28;21021;-70
2023/06/10 03:32:10;;;;;;;5.63;5.17;;;14.30;99.90;;;;;;5049186;28;20525;-70
2023/06/10 03:34:38;;;;;;;5.23;4.83;;;14.30;99.90;;;;;;5049486;28;20470;-70
2023/06/10 03:37:06;;;;;;;6.00;5.50;;;14.30;99.90;;;;;;5049373;28;20456;-70
2023/06/10 03:39:34;;;;;;;5.53;4.70;;;14.20;99.90;;;;;;5049334;28;20470;-70
2023/06/10 03:42:00;;;;;;;5.80;5.20;;;14.20;99.90;;;;;;5049341;28;20550;-70
2023/06/10 03:44:27;;;;;;;6.63;5.60;;;14.20;99.90;;;;;;5029557;28;20460;-70
2023/06/10 03:46:54;;;;;;;6.40;4.63;;;14.20;99.90;;;;;;5032294;28;20468;-70
2023/06/10 03:49:21;;;;;;;5.93;5.40;;;14.20;99.90;;;;;;5042904;28;20490;-70
2023/06/10 03:51:48;;;;;;;5.27;4.77;;;14.20;99.90;;;;;;5052832;28;20812;-70
2023/06/10 03:54:16;;;;;;;5.80;5.07;;;14.20;99.90;;;;;;5052615;28;20470;-70
2023/06/10 03:56:42;;;;;;;5.90;5.30;;;14.20;99.90;;;;;;5044766;28;20455;-70
2023/06/10 03:59:09;;;;;;;5.37;4.83;;;14.20;99.90;;;;;;5052410;28;20479;-70
2023/06/10 04:01:37;;;;;;;4.93;4.50;;;14.20;99.90;;;;;;5052209;28;20462;-70
2023/06/10 04:04:04;;;;;;;6.63;5.10;;;14.20;99.90;;;;;;5052855;28;20550;-71
2023/06/10 04:06:31;;;;;;;6.27;4.87;;;14.20;99.90;;;;;;5052505;28;20475;-70
2023/06/10 04:08:58;;;;;;;5.40;4.80;;;14.20;99.90;;;;;;5037221;28;20480;-70
2023/06/10 04:11:26;;;;;;;5.30;4.80;;;14.30;99.90;;;;;;5032040;28;20460;-70
2023/06/10 04:13:53;;;;;;;4.93;4.27;;;14.30;99.90;;;;;;5032654;28;20499;-70
2023/06/10 04:16:20;;;;;;;5.70;5.00;;;14.40;99.90;;;;;;5032321;28;20552;-70
2023/06/10 04:18:47;;;;;;;4.90;4.47;;;14.40;99.90;;;;;;5032394;28;21039;-70
2023/06/10 04:21:14;;;;;;;5.90;5.07;;;14.40;99.90;;;;;;5031700;28;20473;-70
2023/06/10 04:23:40;;;;;;;5.03;4.20;;;14.40;99.90;;;;;;5032317;28;20465;-70
2023/06/10 04:26:08;;;;;;;4.53;4.13;;;14.50;99.90;;;;;;5032340;28;20884;-70
2023/06/10 04:28:36;;;;;;;5.10;4.60;;;14.50;99.90;;;;;;5031990;28;20487;-70
2023/06/10 04:31:03;;;;;;;5.47;4.97;;;14.50;99.90;;;;;;5031830;28;20457;-70
2023/06/10 04:33:30;;;;;;;5.40;4.90;;;14.60;99.90;;;;;;5035241;28;20531;-70
2023/06/10 04:35:57;;;;;;;5.97;4.67;;;14.60;99.90;;;;;;5045753;28;20465;-70
2023/06/10 04:38:24;;;;;;;4.90;4.50;;;14.70;99.90;;;;;;5040344;28;20487;-70
2023/06/10 04:40:51;;;;;;;4.80;4.40;;;14.70;99.90;;;;;;5031898;28;20467;-70
2023/06/10 04:43:17;;;;;;;5.13;4.73;;;14.80;99.90;;;;;;5049782;28;20459;-70
2023/06/10 04:45:45;;;;;;;4.80;4.40;;;14.80;99.90;;;;;;5121419;22;20503;-68
2023/06/10 04:48:12;;;;;;;5.00;4.50;;;14.90;99.90;;;;;;5043806;28;20491;-68
2023/06/10 04:50:39;;;;;;;5.87;5.10;;;14.90;99.90;;;;;;5047974;28;20467;-69
2023/06/10 04:53:07;;;;;;;5.27;4.83;;;15.00;99.90;;;;;;5040497;28;20870;-69
2023/06/10 04:55:34;;;;;;;5.37;4.87;;;15.10;99.90;;;;;;5044324;28;20464;-69
2023/06/10 04:58:00;;;;;;;5.07;4.57;;;15.10;99.90;;;;;;5043047;28;20548;-68
2023/06/10 05:00:27;;;;;;;5.17;4.67;;;15.20;99.90;;;;;;5035472;28;20464;-69
2023/06/10 05:02:55;;;;;;;5.30;4.80;;;15.30;99.90;;;;;;5043629;28;20464;-68
2023/06/10 05:05:22;;;;;;;4.40;4.00;;;15.40;99.90;;;;;;5043873;28;20464;-69
2023/06/10 05:07:49;;;;;;;4.77;4.37;;;15.40;99.90;;;;;;5052094;28;20490;-69
2023/06/10 05:10:16;;;;;;;5.50;4.90;;;15.50;99.90;;;;;;5033726;28;20480;-69
2023/06/10 05:12:42;;;;;;;5.20;4.70;;;15.60;99.90;;;;;;5031792;28;20835;-69
2023/06/10 05:15:10;;;;;;;3.80;3.50;;;15.80;99.90;;;;;;5048451;28;20487;-69
2023/06/10 05:17:36;;;;;;;4.77;4.30;;;15.80;99.90;;;;;;5042696;28;20479;-69
2023/06/10 05:20:06;;;;;;;6.40;4.33;;;15.90;99.90;;;;;;5043380;28;20456;-69
2023/06/10 05:22:32;;;;;;;5.17;4.57;;;16.00;99.90;;;;;;5031872;28;20460;-69
2023/06/10 05:24:59;;;;;;;6.73;4.20;;;16.10;99.90;;;;;;5040336;28;20859;-69
2023/06/10 05:27:26;;;;;;;5.20;4.70;;;16.20;99.90;;;;;;5031432;28;20811;-69
2023/06/10 05:29:53;;;;;;;4.43;4.03;;;16.30;99.90;;;;;;5039700;28;20487;-69
2023/06/10 05:32:19;;;;;;;4.30;3.90;;;16.50;99.90;;;;;;5040878;28;20991;-69
2023/06/10 05:34:46;;;;;;;4.63;4.13;;;16.60;99.90;;;;;;5043046;28;20466;-69
2023/06/10 05:37:15;;;;;;;4.57;4.17;;;16.70;99.90;;;;;;5042622;28;20463;-69
2023/06/10 05:39:41;;;;;;;5.63;4.77;;;16.80;99.90;;;;;;5035716;28;20452;-69
2023/06/10 05:42:08;;;;;;;4.20;3.80;;;17.00;99.90;;;;;;5042868;28;20854;-69
2023/06/10 05:44:35;;;;;;;3.43;3.13;;;17.10;99.90;;;;;;5043127;28;20464;-69
2023/06/10 05:47:02;;;;;;;3.80;3.50;;;17.20;99.90;;;;;;5050971;28;20951;-69
2023/06/10 05:49:29;;;;;;;4.27;3.87;;;17.30;99.90;;;;;;5042654;28;20484;-69
2023/06/10 05:51:58;;;;;;;4.67;4.20;;;17.40;99.90;;;;;;5036563;28;20464;-69
2023/06/10 05:54:26;;;;;;;3.87;3.50;;;17.50;99.90;;;;;;5039540;28;20466;-69
2023/06/10 05:56:53;;;;;;;4.20;3.80;;;17.60;99.90;;;;;;5045087;28;20459;-69
2023/06/10 05:59:20;;;;;;;4.37;3.97;;;17.70;99.90;;;;;;5033354;28;20571;-68
2023/06/10 06:01:46;;;;;;;4.53;4.13;;;17.80;99.90;;;;;;5039249;28;20461;-69
2023/06/10 06:04:13;;;;;;;4.50;4.07;;;17.90;99.90;;;;;;5039160;28;20467;-69
2023/06/10 06:06:41;;;;;;;5.07;4.63;;;17.90;99.90;;;;;;5034975;28;20558;-69
2023/06/10 06:09:07;;;;;;;4.50;4.10;;;18.10;99.90;;;;;;5042671;28;20483;-69
2023/06/10 06:11:36;;;;;;;4.00;3.70;;;18.10;99.90;;;;;;5039478;28;20468;-69
2023/06/10 06:14:02;;;;;;;5.20;4.20;;;18.20;99.90;;;;;;5030820;28;20488;-69
2023/06/10 06:16:29;;;;;;;4.60;4.20;;;18.30;99.90;;;;;;5039103;28;20459;-69
2023/06/10 06:18:56;;;;;;;4.27;3.83;;;18.40;99.90;;;;;;5030700;28;20492;-69
2023/06/10 06:21:23;;;;;;;5.10;4.50;;;18.50;99.90;;;;;;5048188;28;20459;-69
2023/06/10 06:23:49;;;;;;;4.40;4.03;;;18.60;99.90;;;;;;5042473;28;20940;-69
2023/06/10 06:26:16;;;;;;;6.10;4.00;;;18.60;99.90;;;;;;5033551;28;20460;-69
2023/06/10 06:28:44;;;;;;;4.10;3.70;;;18.70;99.90;;;;;;5039190;28;20510;-69
2023/06/10 06:31:11;;;;;;;5.07;4.27;;;18.80;99.90;;;;;;5038574;28;21012;-69
2023/06/10 06:33:37;;;;;;;4.47;3.50;;;19.00;99.90;;;;;;5042287;28;20463;-69
2023/06/10 06:36:04;;;;;;;4.00;3.70;;;19.00;99.90;;;;;;5042264;28;20465;-69
2023/06/10 06:38:31;;;;;;;3.63;3.30;;;19.20;99.90;;;;;;5039788;28;20479;-69
2023/06/10 06:41:02;;;;;;;4.37;3.97;;;19.30;99.90;;;;;;5044265;28;20459;-69
2023/06/10 06:43:29;;;;;;;4.10;3.70;;;19.30;99.90;;;;;;5033971;28;20935;-69
2023/06/10 06:45:57;;;;;;;4.27;3.87;;;19.40;99.90;;;;;;5044395;28;20464;-68
2023/06/10 06:48:24;;;;;;;4.93;3.67;;;19.50;99.90;;;;;;5046860;28;20479;-69
2023/06/10 06:50:51;;;;;;;3.90;3.60;;;19.60;99.90;;;;;;5043236;28;20479;-69
2023/06/10 06:53:17;;;;;;;5.40;3.80;;;19.70;99.90;;;;;;5034400;28;20548;-69
2023/06/10 06:55:44;;;;;;;3.93;3.57;;;19.80;99.90;;;;;;5042296;28;20482;-69
2023/06/10 06:58:11;;;;;;;4.23;3.70;;;19.90;99.90;;;;;;5034522;28;20476;-69
2023/06/10 07:00:38;;;;;;;4.07;3.67;;;19.90;99.90;;;;;;5038417;28;20456;-69
2023/06/10 07:03:06;;;;;;;4.23;3.93;;;20.00;99.90;;;;;;5045239;28;20468;-69
2023/06/10 07:05:32;;;;;;;4.00;3.70;;;20.00;99.90;;;;;;5042299;28;20465;-69
2023/06/10 07:07:59;;;;;;;5.57;4.80;;;20.00;99.90;;;;;;5041763;28;20487;-69
2023/06/10 07:10:26;;;;;;;4.87;4.47;;;20.10;99.90;;;;;;5041452;28;20859;-69
2023/06/10 07:12:54;;;;;;;4.70;4.30;;;20.20;99.90;;;;;;5044879;28;20464;-69
2023/06/10 07:15:20;;;;;;;4.87;4.40;;;20.20;99.90;;;;;;5030564;28;20462;-69
2023/06/10 07:17:47;;;;;;;4.93;4.10;;;20.30;99.90;;;;;;5049886;28;20483;-69
2023/06/10 07:20:15;;;;;;;5.63;4.33;;;20.30;99.90;;;;;;5033940;28;20852;-69
2023/06/10 07:22:43;;;;;;;4.93;4.10;;;20.40;99.90;;;;;;5029173;28;20463;-69
2023/06/10 07:25:10;;;;;;;4.97;4.47;;;20.40;99.90;;;;;;5038236;28;20470;-69
2023/06/10 07:27:37;;;;;;;5.00;4.33;;;20.50;99.90;;;;;;5044797;28;20496;-68
2023/06/10 07:30:04;;;;;;;4.53;4.07;;;20.60;99.90;;;;;;5038771;28;21038;-70
2023/06/10 07:32:31;;;;;;;4.33;3.93;;;20.70;99.90;;;;;;5041939;28;20530;-69
2023/06/10 07:34:58;;;;;;;4.27;3.87;;;20.80;99.90;;;;;;5042010;28;20465;-68
2023/06/10 07:37:26;;;;;;;4.23;3.83;;;20.90;99.90;;;;;;5042207;28;20829;-69
2023/06/10 07:39:52;;;;;;;4.50;4.10;;;20.90;99.90;;;;;;5041805;28;20460;-69
2023/06/10 07:42:19;;;;;;;4.27;3.87;;;21.00;99.90;;;;;;5033638;28;20483;-69
2023/06/10 07:44:46;;;;;;;4.20;3.80;;;21.10;99.90;;;;;;5045692;28;20461;-69
2023/06/10 07:47:13;;;;;;;3.90;3.50;;;21.10;99.90;;;;;;5045210;28;20467;-69
2023/06/10 07:49:41;;;;;;;4.70;3.80;;;21.20;99.90;;;;;;5044868;28;20483;-69
2023/06/10 07:52:08;;;;;;;5.60;3.93;;;21.30;99.90;;;;;;5053079;28;20465;-69
2023/06/10 07:54:36;;;;;;;4.23;3.87;;;21.40;99.90;;;;;;5045117;28;20845;-69
2023/06/10 07:57:03;;;;;;;3.73;3.43;;;21.40;99.90;;;;;;5053362;28;20513;-69
2023/06/10 07:59:30;;;;;;;4.80;4.17;;;21.50;99.90;;;;;;5043172;28;20487;-69
2023/06/10 08:01:57;;;;;;;3.93;3.63;;;21.50;99.90;;;;;;5038058;28;20498;-69
2023/06/10 08:04:23;;;;;;;3.80;3.47;;;21.60;99.90;;;;;;5044051;28;20470;-69
2023/06/10 08:06:50;;;;;;;3.87;3.57;;;21.70;99.90;;;;;;5037485;28;20461;-69
2023/06/10 08:09:18;;;;;;;4.40;4.00;;;21.70;99.90;;;;;;5052524;28;20992;-69
2023/06/10 08:11:48;;;;;;;4.43;4.03;;;21.80;99.90;;;;;;5028330;28;20535;-69
2023/06/10 08:14:14;;;;;;;4.40;4.10;;;21.90;99.90;;;;;;5045363;28;20520;-69
2023/06/10 08:16:42;;;;;;;5.07;3.37;;;22.00;99.90;;;;;;5035949;28;20479;-69
2023/06/10 08:19:09;;;;;;;4.47;3.90;;;22.00;99.90;;;;;;5052812;28;20982;-69
2023/06/10 08:21:36;;;;;;;4.57;4.17;;;22.10;99.90;;;;;;5035777;28;20494;-69
2023/06/10 08:24:03;;;;;;;4.70;4.30;;;22.20;99.90;;;;;;5044435;28;20464;-69
2023/06/10 08:26:30;;;;;;;4.93;4.43;;;22.30;99.90;;;;;;5043431;28;20463;-69
2023/06/10 08:28:58;;;;;;;4.10;3.80;;;22.40;99.90;;;;;;5032422;28;20490;-69
2023/06/10 08:31:24;;;;;;;4.73;4.33;;;22.50;99.90;;;;;;5031752;28;20486;-69
2023/06/10 08:33:51;;;;;;;4.53;4.13;;;22.50;99.90;;;;;;5036143;28;20462;-69
2023/06/10 08:36:18;;;;;;;4.30;4.00;;;22.60;99.90;;;;;;5052413;28;20962;-70
2023/06/10 08:38:44;;;;;;;4.93;4.37;;;22.60;99.90;;;;;;5032545;28;20897;-70
2023/06/10 08:41:15;;;;;;;4.70;4.17;;;22.80;99.90;;;;;;5032052;28;20455;-70
2023/06/10 08:43:46;;;;;;;4.13;3.73;;;22.80;99.90;;;;;;5032600;28;20472;-69
2023/06/10 08:46:15;;;;;;;4.53;4.20;;;22.90;99.90;;;;;;5039360;28;20471;-70
2023/06/10 08:48:44;;;;;;;4.33;3.93;;;22.90;99.90;;;;;;5052025;28;20493;-70
2023/06/10 08:51:12;;;;;;;4.70;4.30;;;23.00;99.90;;;;;;5036561;28;20483;-69
2023/06/10 08:53:43;;;;;;;4.50;4.00;;;22.90;99.90;;;;;;5042871;28;20507;-69
2023/06/10 08:56:11;;;;;;;4.63;4.10;;;23.10;99.90;;;;;;5037275;28;20472;-69
2023/06/10 08:58:41;;;;;;;4.13;3.83;;;23.20;99.90;;;;;;5034295;28;20841;-69
2023/06/10 09:01:08;;;;;;;4.00;3.70;;;23.20;99.90;;;;;;5036890;28;20970;-70
2023/06/10 09:03:38;;;;;;;4.27;3.97;;;23.30;99.90;;;;;;5048677;28;20862;-70
2023/06/10 09:06:06;;;;;;;4.43;4.03;;;23.40;99.90;;;;;;5031928;28;20464;-69
2023/06/10 09:08:34;;;;;;;4.07;3.77;;;23.50;99.90;;;;;;5040188;28;20495;-69
2023/06/10 09:11:01;;;;;;;3.83;3.57;;;23.60;99.90;;;;;;5036765;28;20478;-70
2023/06/10 09:13:28;;;;;;;3.87;3.57;;;23.80;99.90;;;;;;5051891;28;20461;-69
2023/06/10 09:15:56;;;;;;;4.60;4.20;;;24.00;99.90;;;;;;5051757;28;20557;-70
2023/06/10 09:18:23;;;;;;;5.43;4.50;;;24.00;99.90;;;;;;5043808;28;20556;-69
2023/06/10 09:20:51;;;;;;;4.00;3.70;;;24.00;99.90;;;;;;5035319;28;20460;-69
2023/06/10 09:23:18;;;;;;;3.93;3.60;;;24.10;99.90;;;;;;5051474;28;20533;-69
2023/06/10 09:25:45;;;;;;;3.70;3.47;;;24.30;99.90;;;;;;5051281;28;20461;-70
2023/06/10 09:28:15;;;;;;;4.60;4.20;;;24.40;99.90;;;;;;5044811;28;20905;-69
2023/06/10 09:30:42;;;;;;;4.30;3.90;;;24.50;99.90;;;;;;5050289;28;20872;-69
2023/06/10 09:33:12;;;;;;;4.43;4.03;;;24.50;99.90;;;;;;5036972;28;20462;-69
2023/06/10 09:35:46;;;;;;;4.27;3.87;;;24.60;99.90;;;;;;5041873;28;20763;-70
2023/06/10 09:38:16;;;;;;;4.27;3.70;;;24.70;99.90;;;;;;5036450;28;20541;-70
2023/06/10 09:40:50;;;;;;;4.67;4.27;;;24.90;99.90;;;;;;5041967;28;20487;-70
2023/06/10 09:43:16;;;;;;;3.70;3.40;;;25.10;99.90;;;;;;5035645;28;21241;-69
2023/06/10 09:45:44;;;;;;;4.40;4.00;;;25.10;99.90;;;;;;5039519;28;20467;-69
2023/06/10 09:48:10;;;;;;;3.70;3.40;;;25.10;99.90;;;;;;5045762;28;20547;-70
2023/06/10 09:50:43;;;;;;;4.17;3.87;;;25.10;99.90;;;;;;5050784;28;20533;-70
2023/06/10 09:53:10;;;;;;;4.40;4.00;;;25.20;99.90;;;;;;5044772;28;21073;-70
2023/06/10 09:55:40;;;;;;;3.80;3.40;;;25.30;99.90;;;;;;5039591;28;20465;-70
2023/06/10 09:58:07;;;;;;;4.10;3.80;;;25.50;99.90;;;;;;5031497;28;20490;-69
2023/06/10 10:00:34;;;;;;;4.20;3.80;;;25.60;99.90;;;;;;5030818;28;20952;-70
2023/06/10 10:03:02;;;;;;;4.20;3.80;;;25.60;99.90;;;;;;5039210;28;20468;-70
2023/06/10 10:05:29;;;;;;;4.20;3.90;;;25.60;99.90;;;;;;5047880;28;20489;-70
2023/06/10 10:07:56;;;;;;;3.83;3.53;;;25.70;99.90;;;;;;5042613;28;20497;-70
2023/06/10 10:10:23;;;;;;;4.17;3.87;;;25.80;99.90;;;;;;5042605;28;20911;-69
2023/06/10 10:12:57;;;;;;;3.73;3.43;;;25.80;99.90;;;;;;5050451;28;20845;-70
2023/06/10 10:15:26;;;;;;;4.00;3.70;;;25.50;99.90;;;;;;5050682;28;20491;-69
2023/06/10 10:17:56;;;;;;;3.73;3.43;;;25.50;99.90;;;;;;5022556;28;21111;-69
2023/06/10 10:20:28;;;;;;;3.40;3.13;;;25.60;99.90;;;;;;5046586;28;20465;-70
2023/06/10 10:22:57;;;;;;;3.80;3.50;;;25.80;99.90;;;;;;5034477;28;20465;-70
2023/06/10 10:25:26;;;;;;;4.20;3.80;;;26.00;99.90;;;;;;5050453;28;20467;-70
2023/06/10 10:27:59;;;;;;;4.33;3.93;;;26.20;99.90;;;;;;5046662;28;20995;-70
2023/06/10 10:30:28;;;;;;;4.10;3.70;;;26.10;99.90;;;;;;5038515;28;20482;-70
2023/06/10 10:32:59;;;;;;;3.67;3.37;;;26.30;99.90;;;;;;5026198;28;20493;-70
2023/06/10 10:35:26;;;;;;;2.90;2.70;;;26.50;99.90;;;;;;5034449;28;20892;-70
2023/06/10 10:37:54;;;;;;;3.97;3.67;;;26.70;99.90;;;;;;5030872;28;20492;-70
2023/06/10 10:40:22;;;;;;;4.30;3.90;;;26.80;99.70;;;;;;5045894;28;20452;-70
2023/06/10 10:42:50;;;;;;;3.90;3.57;;;26.80;99.90;;;;;;5049960;28;20478;-70
2023/06/10 10:45:19;;;;;;;3.67;3.37;;;26.80;99.90;;;;;;5107572;23;20857;-69
2023/06/10 10:47:47;;;;;;;3.67;3.37;;;26.80;98.10;;;;;;5061121;28;20502;-70
2023/06/10 10:50:15;;;;;;;3.73;3.43;;;26.90;99.60;;;;;;5069456;28;20569;-70
2023/06/10 10:52:52;;;;;;;4.27;3.90;;;26.90;99.90;;;;;;5069650;28;20463;-71
2023/06/10 10:55:19;;;;;;;4.03;3.33;;;27.10;99.20;;;;;;5070501;28;20959;-68
2023/06/10 10:57:55;;;;;;;3.80;3.50;;;27.30;99.00;;;;;;5073846;28;20488;-70
2023/06/10 11:00:28;;;;;;;3.60;3.30;;;27.50;99.80;;;;;;5073634;28;20945;-69
2023/06/10 11:02:59;;;;;;;3.63;3.30;;;27.50;97.50;;;;;;5073879;28;20460;-69
2023/06/10 11:05:36;;;;;;;3.83;3.40;;;27.50;98.20;;;;;;5073843;28;20462;-69
2023/06/10 11:08:02;;;;;;;4.30;3.93;;;27.40;97.00;;;;;;5073749;28;20484;-70
2023/06/10 11:10:31;;;;;;;3.67;3.20;;;27.40;97.70;;;;;;5073896;28;20480;-70
2023/06/10 11:12:58;;;;;;;3.70;3.40;;;27.50;97.40;;;;;;5065957;28;20463;-69
2023/06/10 11:15:28;;;;;;;3.97;3.47;;;27.60;98.10;;;;;;5073803;28;20472;-70
2023/06/10 11:18:28;;;;;;;4.07;3.67;;;27.80;97.40;;;;;;5073826;28;20478;-70
2023/06/10 11:21:00;;;;;;;3.87;3.57;;;28.00;96.60;;;;;;4991007;28;20451;-70
2023/06/10 11:23:39;;;;;;;3.60;3.30;;;28.10;96.10;;;;;;4992086;28;20471;-70
2023/06/10 11:26:17;;;;;;;3.20;2.90;;;28.10;97.00;;;;;;5038487;28;20838;-69
2023/06/10 11:29:07;;;;;;;4.03;3.40;;;28.10;96.60;;;;;;5073539;28;20477;-70
2023/06/10 11:31:40;;;;;;;4.07;3.67;;;27.90;95.50;;;;;;5073123;28;20919;-69
2023/06/10 11:34:08;;;;;;;3.40;3.10;;;27.70;96.70;;;;;;5073670;28;20495;-70
2023/06/10 11:36:40;;;;;;;3.90;3.50;;;27.60;97.40;;;;;;5073565;28;20479;-70
2023/06/10 11:39:07;;;;;;;3.83;3.53;;;27.60;97.20;;;;;;5073670;28;20480;-69
2023/06/10 11:41:36;;;;;;;3.77;3.47;;;27.80;98.90;;;;;;5072868;28;20850;-69
2023/06/10 11:44:04;;;;;;;3.50;3.10;;;28.00;97.80;;;;;;5073629;28;20477;-69
2023/06/10 11:46:31;;;;;;;3.60;3.30;;;28.30;98.70;;;;;;5073400;28;20472;-69
2023/06/10 11:49:02;;;;;;;3.93;3.63;;;28.30;98.10;;;;;;5073300;28;20482;-70
2023/06/10 11:51:30;;;;;;;3.80;3.50;;;28.30;97.20;;;;;;5072763;28;20872;-70
2023/06/10 11:53:57;;;;;;;4.30;3.90;;;28.10;96.30;;;;;;5073275;28;20466;-70
2023/06/10 11:56:26;;;;;;;6.63;3.73;;;28.00;96.70;;;;;;5073211;28;20468;-69
2023/06/10 11:58:57;;;;;;;3.87;3.57;;;27.60;95.20;;;;;;5073098;28;20485;-70
2023/06/10 12:01:25;;;;;;;4.40;4.00;;;27.30;95.70;;;;;;5072704;28;20469;-69
2023/06/10 12:03:59;;;;;;;4.40;4.10;;;27.00;96.30;;;;;;5073333;28;20463;-70
2023/06/10 12:06:26;;;;;;;4.37;3.97;;;26.80;97.80;;;;;;5072827;28;20467;-70
2023/06/10 12:08:54;;;;;;;3.93;3.63;;;26.80;97.50;;;;;;5072967;28;20572;-69
2023/06/10 12:11:21;;;;;;;3.77;3.47;;;26.70;96.30;;;;;;5072475;28;20476;-69
2023/06/10 12:13:49;;;;;;;4.00;3.60;;;26.50;98.70;;;;;;5072761;28;20876;-69
2023/06/10 12:16:16;;;;;;;4.30;3.87;;;26.30;96.80;;;;;;5072848;28;20466;-69
2023/06/10 12:18:45;;;;;;;3.80;3.50;;;26.30;98.40;;;;;;5072682;28;20491;-69
2023/06/10 12:21:26;;;;;;;4.23;3.87;;;26.60;98.20;;;;;;5072448;28;20512;-69
2023/06/10 12:24:07;;;;;;;3.60;3.30;;;26.90;97.90;;;;;;5072858;28;20686;-70
2023/06/10 12:26:38;;;;;;;5.33;4.03;;;27.10;97.90;;;;;;5072872;28;20467;-69
2023/06/10 12:29:22;;;;;;;3.70;3.40;;;27.10;97.40;;;;;;5072653;28;20482;-69
2023/06/10 12:31:57;;;;;;;4.73;4.33;;;26.80;95.70;;;;;;5070925;28;20567;-69
2023/06/10 12:34:30;;;;;;;3.93;3.63;;;26.70;96.40;;;;;;5072846;28;20468;-69
2023/06/10 12:36:58;;;;;;;4.17;3.80;;;26.70;98.10;;;;;;5072604;28;20498;-70
2023/06/10 12:39:25;;;;;;;3.70;3.40;;;27.00;98.00;;;;;;5072138;28;20509;-70
2023/06/10 12:41:53;;;;;;;4.80;3.77;;;27.30;95.80;;;;;;5072186;28;20823;-69
2023/06/10 12:44:28;;;;;;;4.20;3.80;;;27.50;95.10;;;;;;5072314;28;20469;-70
2023/06/10 12:46:55;;;;;;;3.97;3.67;;;27.60;96.40;;;;;;5072021;28;20965;-70
2023/06/10 12:49:22;;;;;;;3.93;3.50;;;27.80;95.80;;;;;;5071913;28;21001;-69
2023/06/10 12:51:49;;;;;;;3.70;3.40;;;28.00;98.20;;;;;;5071816;28;21032;-69